createdAt,value
2023-04-22T00:15:48.111Z,7.6
2023-04-22T00:25:48.660Z,7.6
2023-04-22T00:35:49.702Z,7.5
2023-04-22T00:45:50.695Z,7.5
2023-04-22T00:55:51.220Z,7.3
2023-04-22T01:05:51.328Z,7.2
2023-04-22T01:15:51.660Z,7.1
2023-04-22T01:25:52.113Z,7
2023-04-22T01:35:52.531Z,6.9
2023-04-22T01:45:53.137Z,7
2023-04-22T01:55:53.813Z,6.9
2023-04-22T02:05:54.650Z,6.9
2023-04-22T02:15:55.074Z,6.9
2023-04-22T02:25:55.177Z,7
2023-04-22T02:35:55.686Z,7
2023-04-22T02:45:55.846Z,6.9
2023-04-22T02:55:56.187Z,7
2023-04-22T03:05:56.980Z,7.1
2023-04-22T03:25:58.569Z,7.2
2023-04-22T03:35:58.808Z,7.3
2023-04-22T03:45:59.445Z,7.3
2023-04-22T03:56:00.314Z,7.5
2023-04-22T04:06:00.557Z,7.6
2023-04-22T04:16:01.299Z,7.8
2023-04-22T04:26:01.876Z,7.9
2023-04-22T04:36:02.212Z,8
2023-04-22T04:46:02.568Z,8
2023-04-22T04:56:02.694Z,8.1
2023-04-22T05:16:04.232Z,8.3
2023-04-22T05:26:04.899Z,8.3
2023-04-22T05:46:06.402Z,8.6
2023-04-22T06:06:06.866Z,8.9
2023-04-22T06:26:08.136Z,9.3
2023-04-22T06:36:08.775Z,9.6
2023-04-22T06:46:09.265Z,9.8
2023-04-22T06:56:10.345Z,10.2
2023-04-22T07:06:11.352Z,10.6
2023-04-22T07:16:12.224Z,10.9
2023-04-22T07:26:13.163Z,11.4
2023-04-22T07:46:14.977Z,13
2023-04-22T07:56:15.743Z,13.6
2023-04-22T08:06:15.953Z,14.2
2023-04-22T08:16:16.384Z,15.2
2023-04-22T08:26:17.360Z,15.8
2023-04-22T08:36:17.929Z,16.4
2023-04-22T08:46:18.125Z,17.3
2023-04-22T08:56:18.414Z,17.5
2023-04-22T09:06:19.104Z,17.9
2023-04-22T09:16:19.723Z,18.4
2023-04-22T09:26:20.670Z,18.5
2023-04-22T09:36:21.493Z,18.9
2023-04-22T09:46:22.062Z,19.2
2023-04-22T09:56:23.018Z,19.3
2023-04-22T10:06:23.613Z,19.7
2023-04-22T10:16:24.606Z,19.9
2023-04-22T10:26:25.630Z,20.3
2023-04-22T10:36:25.944Z,20.4
2023-04-22T10:56:27.176Z,20.9
2023-04-22T11:06:27.739Z,20.6
2023-04-22T11:16:28.574Z,20.9
2023-04-22T11:36:30.029Z,21.2
2023-04-22T11:46:30.989Z,21.2
2023-04-22T11:56:31.554Z,20.7
2023-04-22T12:06:31.886Z,20.8
2023-04-22T12:16:32.444Z,21
2023-04-22T12:26:33.002Z,20.9
2023-04-22T12:36:33.880Z,20.8
2023-04-22T12:46:34.775Z,20.8
2023-04-22T12:56:34.869Z,21
2023-04-22T13:06:35.870Z,20.3
2023-04-22T13:16:36.251Z,20.2
2023-04-22T13:26:36.967Z,20.5
2023-04-22T13:36:37.725Z,21
2023-04-22T13:46:37.864Z,21.3
2023-04-22T13:56:38.806Z,20.8
2023-04-22T14:06:39.005Z,20.6
2023-04-22T14:16:39.293Z,20.5
2023-04-22T14:26:39.387Z,20.3
2023-04-22T14:36:39.831Z,20.1
2023-04-22T14:56:40.641Z,19.4
2023-04-22T15:16:42.017Z,18.3
2023-04-22T15:26:42.786Z,18
2023-04-22T15:36:43.574Z,17.7
2023-04-22T15:46:44.164Z,17.4
2023-04-22T15:56:45.096Z,17.2
2023-04-22T16:06:45.449Z,17.1
2023-04-22T16:16:46.510Z,17.3
2023-04-22T16:26:47.595Z,17.3
2023-04-22T16:36:48.423Z,17.1
2023-04-22T16:46:49.036Z,17
2023-04-22T16:56:49.273Z,16.8
2023-04-22T17:06:49.900Z,16.7
2023-04-22T17:26:51.300Z,15.8
2023-04-22T17:36:52.075Z,15.2
2023-04-22T17:56:53.137Z,14.4
2023-04-22T18:16:54.150Z,14.2
2023-04-22T18:46:56.715Z,13.9
2023-04-22T18:56:57.266Z,13.8
2023-04-22T19:06:57.697Z,13.8
2023-04-22T19:16:58.230Z,13.7
2023-04-22T19:36:59.038Z,13.6
2023-04-22T19:46:59.412Z,13.6
2023-04-22T19:57:00.216Z,13.6
2023-04-22T20:07:02.732Z,13
2023-04-22T20:17:02.258Z,12.6
2023-04-22T20:27:03.306Z,12.4
2023-04-22T20:37:04.330Z,12.4
2023-04-22T20:47:04.994Z,12.3
2023-04-22T20:57:05.316Z,12.2
2023-04-22T21:07:05.413Z,11.9
2023-04-22T21:17:05.563Z,11.7
2023-04-22T21:27:06.225Z,11.6
2023-04-22T21:37:06.599Z,11.4
2023-04-22T21:47:07.017Z,11.3
2023-04-22T21:57:07.788Z,11.2
2023-04-22T22:07:08.403Z,11
2023-04-22T22:17:08.763Z,10.9
2023-04-22T22:27:09.503Z,10.7
2023-04-22T22:37:10.050Z,10.6
2023-04-22T22:47:10.849Z,10.6
2023-04-22T22:57:11.058Z,10.4
2023-04-22T23:07:11.768Z,10.2
2023-04-22T23:27:12.610Z,9.8
2023-04-22T23:37:13.229Z,9.7
2023-04-22T23:47:13.832Z,9.5
